LXGB/GIB METAR and TAF weather

Enter ICAO airport designator
Station Type Date Time Source
LXGB METAR 2022/01/23 12:20 UTC NOAA

LXGB 231220Z 09020KT 9999 SCT024 OVC047 15/10 Q1024 TEMPO FEW024 RMK WHT TEMPO BLU


Station Type Date Time Source
LXGB Decoded METAR 2022/01/23 12:20 UTC NOAA

Gibraltar, Gibraltar (LXGB) 36-09N 005-21W 0M
Jan 23, 2022 - 07:20 AM EST / 2022.01.23 1220 UTC
Wind: from the E (090 degrees) at 23 MPH (20 KT):0
Visibility: greater than 7 mile(s):0
Sky conditions: overcast
Temperature: 59 F (15 C)
Dew Point: 50 F (10 C)
Relative Humidity: 72%
Pressure (altimeter): 30.24 in. Hg (1024 hPa)
ob: LXGB 231220Z 09020KT 9999 SCT024 OVC047 15/10 Q1024 TEMPO FEW024 RMK WHT TEMPO BLU
cycle: 12

Station Type Date Time Source
LXGB TAF 2020/12/29 18:09 UTC NOAA

TAF TAF LXGB 290602Z 2818/2923 CNL

Example: see airport list